Main page
METAR-TAF:

METAR-TAF

Airports :

Oslo Airport. Gardermoen

Oslo, Norway

latitude: 60-12N, longitude: 011-05E, elevation: 208 m

Current weather observation

The report was made 26 minutes ago, at 11:50 UTC
Wind 15 kt from the South/Southwest
Temperature 5°C
Humidity 56%
Pressure 1011 hPa
Visibility 10 km or more
no clouds below 1500 m and no cumulonimbus

METAR: ENGM 241150Z 20015KT CAVOK 05/M03 Q1011 NOSIG

Time: 13:16 (12:16 UTC)

Forecast

Forecast valid from 24 at 12 UTC to 25 at 12 UTC
Wind 12 kt from the South
Visibility 10 km or more
Few clouds at a height of 3000 ft
Scattered clouds at a height of 7000 ft
Becoming
from 24 at 15 UTC to 24 at 18 UTC
Wind 5 kt from variable directions
Probability 30%
from 25 at 00 UTC to 25 at 05 UTC
Visibility: 0800 m
at a height of 200 ft
freezing fog
Becoming
from 25 at 03 UTC to 25 at 05 UTC
Wind 10 kt from the North

TAF: ENGM 2412/2512 18012KT 9999 FEW030 SCT070 BECMG 2415/2418 VRB05KT PROB30 2500/2505 0800 FZFG VV002 BECMG 2503/2505 01010KT

Weather observations and forecasts of more than 4000 airports (METAR and TAF reports).

The available stations are represented by yellow and red dots on the map.

Hover mouse over dot to see the name of the station.

Then click to see weather observations and forecasts.

To change the map : click on the green buttons with a black cross to zoom in, on the green button with a dash to zoom out, or on the green arrows for adjacent maps.


METAR-TAF: